Latest Weather Observations for Kingfish B

IDV60801

Issued at 11:05 pm EST Wednesday 30 July 2014 (issued every 30 minutes, with the page automatically refreshed every 10 minutes)

About weather observations | Map of weather stations | Latest weather observations for VIC | Other Formats
Station Details ID: 400139 Name: KINGFISH B (PLATFORM) Lat: -38.60 Lon: 148.19 Height: 31.4 m
Data from the previous 72 hours. | See also: Recent months for locations in Victoria
Date/Time
EST
Temp
°C
App
Temp
°C
Dew
Point
Rel
Hum
%
Delta-T
°C
Wind Press
QNH
hPa
Press
MSL
hPa
Rain
since 9 am
mm
Dir
 
Spd
km/h
Gust
km/h
Spd
kts
Gust
kts
30/09:50pm 15.5 10.0 10.4 71 2.7 W 30 33 16 18 1007.1 - -
30/09:40pm 15.5 10.0 10.4 71 2.7 W 30 32 16 17 1007.2 - -
30/09:30pm 15.5 9.6 10.4 71 2.7 W 32 33 17 18 1007.3 - -
30/09:20pm 15.4 10.2 10.4 72 2.6 WNW 28 35 15 19 1007.3 - -
30/09:10pm 15.3 10.9 10.4 72 2.6 WNW 24 30 13 16 1007.4 - -
30/09:00pm 15.3 10.5 10.3 72 2.6 WNW 26 32 14 17 1007.4 - -
30/08:50pm 15.4 10.6 10.2 71 2.7 WNW 26 28 14 15 1007.4 - -
30/08:40pm 15.4 10.5 10.1 70 2.8 WNW 26 30 14 16 1007.5 - -
30/08:30pm 15.3 10.1 10.2 71 2.7 WNW 28 32 15 17 1007.5 - -
30/08:20pm 15.3 10.1 10.3 72 2.6 NW 28 30 15 16 1007.5 - -
30/08:10pm 15.3 9.4 10.3 72 2.6 WNW 32 39 17 21 1007.4 - -
30/08:00pm 15.5 9.9 10.3 71 2.7 NW 30 35 16 19 1007.3 - -
30/07:50pm 15.9 9.7 9.9 67 3.1 WNW 33 41 18 22 1007.4 - -
30/07:40pm 16.0 8.5 9.6 66 3.3 WNW 39 44 21 24 1007.3 - -
30/07:30pm 16.0 8.1 9.4 65 3.4 WNW 41 46 22 25 1007.3 - -
30/07:20pm 15.9 8.4 9.5 66 3.3 WNW 39 44 21 24 1007.3 - -
30/07:10pm 15.9 8.5 9.7 66 3.2 WNW 39 44 21 24 1007.4 - -
30/07:00pm 15.8 8.4 9.8 67 3.1 WNW 39 44 21 24 1007.6 - -
30/06:50pm 15.9 8.5 9.7 66 3.2 WNW 39 44 21 24 1007.7 - -
30/06:40pm 16.1 8.3 9.6 65 3.4 WNW 41 46 22 25 1007.8 - -
30/06:30pm 16.1 7.7 9.5 65 3.4 WNW 44 56 24 30 1007.8 - -
30/06:20pm 16.1 7.7 9.6 65 3.4 WNW 44 52 24 28 1007.8 - -
30/06:10pm 16.1 7.3 9.7 66 3.3 WNW 46 54 25 29 1007.7 - -
30/06:00pm 16.1 7.7 9.8 66 3.3 WNW 44 50 24 27 1007.7 - -
30/05:40pm 16.3 7.9 9.8 65 3.4 WNW 44 50 24 27 1007.5 - -
30/05:30pm 16.3 7.9 9.7 65 3.4 WNW 44 52 24 28 1007.5 - -
30/05:20pm 16.2 7.5 9.9 66 3.3 WNW 46 54 25 29 1007.5 - -
30/05:10pm 16.2 8.1 10.0 66 3.3 WNW 43 50 23 27 1007.4 - -
30/05:00pm 16.2 7.9 9.9 66 3.3 WNW 44 50 24 27 1007.3 - -
30/04:50pm 16.2 8.1 9.9 66 3.3 WNW 43 50 23 27 1007.2 - -
30/04:40pm 16.2 8.5 10.0 66 3.3 WNW 41 48 22 26 1007.1 - -
30/04:30pm 16.1 8.8 10.1 67 3.2 WNW 39 46 21 25 1007.1 - -
30/04:20pm 16.0 9.1 10.2 68 3.1 WNW 37 44 20 24 1007.2 - -
30/04:10pm 15.9 9.0 10.4 70 2.9 WNW 37 43 20 23 1007.2 - -
30/04:00pm 15.6 9.6 10.7 72 2.6 WNW 33 41 18 22 1007.2 - -
30/03:50pm 15.5 10.8 10.8 73 2.5 WNW 26 33 14 18 1007.2 - -
30/03:40pm 15.6 11.3 10.7 72 2.6 WNW 24 26 13 14 1007.2 - -
30/03:30pm 15.8 11.8 10.6 71 2.8 WNW 22 26 12 14 1007.1 - -
30/03:20pm 15.9 10.3 10.3 69 3.0 WNW 30 32 16 17 1007.0 - -
30/03:10pm 16.1 10.5 10.1 67 3.2 WNW 30 33 16 18 1006.9 - -
30/03:00pm 16.0 10.0 10.0 67 3.1 W 32 37 17 20 1007.0 - -
30/02:50pm 16.0 10.0 10.2 68 3.1 W 32 37 17 20 1007.2 - -
30/02:40pm 16.0 10.8 10.3 69 3.0 W 28 32 15 17 1007.3 - -
30/02:30pm 16.0 11.2 10.3 69 3.0 W 26 30 14 16 1007.4 - -
30/02:20pm 16.1 11.3 10.2 68 3.1 W 26 30 14 16 1007.4 - -
30/02:10pm 16.0 10.4 10.1 68 3.1 W 30 37 16 20 1007.4 - -
30/02:00pm 15.9 10.3 10.3 69 3.0 W 30 35 16 19 1007.4 - -
30/01:40pm 15.7 9.6 10.5 71 2.8 W 33 39 18 21 1007.5 - -
30/01:30pm 15.6 9.5 10.5 71 2.7 W 33 41 18 22 1007.5 - -
30/01:20pm 15.5 9.4 10.5 72 2.6 W 33 37 18 20 1007.7 - -
30/01:10pm 15.4 9.3 10.5 72 2.6 W 33 39 18 21 1007.8 - -
30/01:00pm 15.4 9.5 10.5 72 2.6 W 32 37 17 20 1007.8 - -
30/12:50pm 15.3 9.2 10.4 72 2.6 W 33 37 18 20 1007.8 - -
30/12:40pm 15.3 9.2 10.3 72 2.6 W 33 37 18 20 1007.8 - -
30/12:30pm 15.4 8.9 10.2 71 2.7 WNW 35 39 19 21 1007.9 - -
30/12:10pm 15.8 9.1 9.7 67 3.2 W 35 43 19 23 1008.2 - -
30/12:00pm 15.7 9.0 9.8 68 3.1 W 35 44 19 24 1008.3 - -
30/11:40am 15.3 10.4 10.1 71 2.7 WNW 26 35 14 19 1008.6 - -
30/11:30am 15.3 11.1 9.9 70 2.8 WNW 22 30 12 16 1008.8 - -
30/11:20am 15.3 10.0 9.7 69 2.9 WNW 28 32 15 17 1008.8 - -
30/11:10am 15.5 9.3 9.3 66 3.2 WNW 32 39 17 21 1008.9 - -
30/11:00am 15.5 8.3 9.1 65 3.3 W 37 44 20 24 1009.0 - -
30/10:50am 15.6 8.4 9.2 65 3.3 W 37 43 20 23 1009.1 - -
30/10:40am 15.4 8.6 9.2 66 3.2 W 35 41 19 22 1009.3 - -
30/10:30am 15.4 8.6 9.3 67 3.1 W 35 43 19 23 1009.6 - -
30/10:20am 15.6 9.8 9.5 67 3.2 W 30 37 16 20 1009.9 - -
30/10:10am 15.6 10.2 9.4 66 3.2 W 28 33 15 18 1010.1 - -
30/10:00am 15.6 9.8 9.3 66 3.3 W 30 33 16 18 1010.1 - -
30/09:50am 15.7 9.4 9.1 65 3.4 W 32 37 17 20 1010.1 - -
30/09:40am 15.7 9.2 9.1 65 3.4 WSW 33 41 18 22 1010.1 - -
30/09:30am 15.6 9.1 8.9 64 3.4 WSW 33 41 18 22 1009.9 - -
30/09:20am 15.7 9.3 9.2 65 3.4 WSW 33 39 18 21 1009.8 - -
30/09:00am 15.7 8.5 9.1 65 3.4 WSW 37 43 20 23 1009.6 - -
30/08:50am 15.6 8.4 9.1 65 3.3 WSW 37 44 20 24 1009.7 - -
30/08:40am 15.6 8.0 9.2 65 3.3 WSW 39 46 21 25 1009.6 - -
30/08:30am 15.6 8.0 9.1 65 3.3 W 39 46 21 25 1009.6 - -
30/08:20am 15.6 8.0 9.0 65 3.4 W 39 44 21 24 1009.7 - -
30/08:10am 15.4 7.7 8.8 65 3.4 W 39 46 21 25 1009.7 - -
30/08:00am 15.4 7.0 8.8 65 3.4 W 43 52 23 28 1009.5 - -
30/07:50am 15.4 6.1 9.2 66 3.2 W 48 59 26 32 1009.5 - -
30/07:40am 15.0 5.8 9.5 69 2.8 W 48 57 26 31 1009.6 - -
30/07:30am 14.8 6.1 9.8 72 2.6 W 46 54 25 29 1009.5 - -
30/07:20am 14.7 5.6 10.0 73 2.4 W 48 56 26 30 1009.4 - -
30/07:10am 14.5 6.3 10.4 76 2.1 W 44 61 24 33 1009.4 - -
30/07:00am 14.4 7.5 10.4 77 2.1 W 37 44 20 24 1009.5 - -
30/06:50am 14.4 8.5 10.3 76 2.1 W 32 41 17 22 1009.4 - -
30/06:40am 14.3 8.1 10.2 76 2.1 WSW 33 39 18 21 1009.3 - -
30/06:30am 14.4 6.6 9.8 74 2.4 WSW 41 46 22 25 1009.2 - -
30/06:20am 14.5 6.1 9.5 72 2.6 WSW 44 56 24 30 1009.1 - -
30/06:10am 14.3 5.5 9.5 73 2.5 WSW 46 59 25 32 1009.1 - -
30/06:00am 14.2 5.9 10.0 76 2.2 WSW 44 54 24 29 1009.1 - -
30/05:50am 14.4 6.0 9.8 74 2.4 W 44 56 24 30 1009.1 - -
30/05:40am 14.3 5.5 9.4 72 2.5 WSW 46 57 25 31 1008.8 - -
30/05:30am 14.2 4.9 9.1 71 2.6 WSW 48 57 26 31 1008.6 - -
30/05:20am 14.3 4.6 9.1 71 2.7 WSW 50 63 27 34 1008.5 - -
30/05:10am 14.5 4.4 9.1 70 2.8 WSW 52 65 28 35 1008.4 - -
30/05:00am 14.5 4.8 9.2 70 2.7 WSW 50 63 27 34 1008.2 - -
30/04:50am 14.6 5.0 9.6 72 2.6 WSW 50 63 27 34 1008.1 - -
30/04:40am 14.6 4.7 9.7 72 2.5 W 52 59 28 32 1008.2 - -
30/04:30am 14.8 4.9 9.8 72 2.6 W 52 61 28 33 1008.1 - -
30/04:20am 14.9 5.0 9.9 72 2.6 W 52 63 28 34 1008.0 - -
30/04:10am 15.0 5.6 10.0 72 2.6 W 50 61 27 33 1008.0 - -
30/04:00am 14.9 5.4 9.9 72 2.6 WSW 50 59 27 32 1007.8 - -
30/03:50am 14.8 5.7 10.0 73 2.5 WSW 48 59 26 32 1007.5 - -
30/03:40am 14.6 6.1 10.6 77 2.1 WSW 46 63 25 34 1007.5 - -
30/03:30am 14.6 6.7 10.9 78 2.0 W 43 56 23 30 1007.7 - -
30/03:20am 14.6 7.1 10.9 78 2.0 W 41 50 22 27 1007.6 - -
30/03:10am 14.6 6.8 11.0 79 1.9 W 43 48 23 26 1007.6 - -
30/03:00am 14.8 6.7 10.9 77 2.1 W 44 50 24 27 1007.6 - -
30/02:50am 14.8 6.0 10.9 77 2.1 W 48 56 26 30 1007.4 - -
30/02:40am 14.8 6.8 11.0 78 2.0 W 44 54 24 29 1007.6 - -
30/02:30am 15.0 7.0 11.1 77 2.1 W 44 52 24 28 1007.6 - -
30/02:20am 15.0 6.2 11.1 77 2.1 W 48 56 26 30 1007.6 - -
30/02:10am 15.1 6.7 11.1 77 2.1 W 46 54 25 29 1007.4 - -
30/01:50am 15.1 5.2 11.0 76 2.2 W 54 67 29 36 1007.3 - -
30/01:40am 15.1 7.2 11.3 78 2.0 W 44 56 24 30 1007.5 - -
30/01:30am 14.9 7.1 11.2 78 2.0 W 43 50 23 27 1007.5 - -
30/01:20am 14.9 6.5 11.1 78 2.0 W 46 57 25 31 1007.4 - -
30/01:10am 15.1 6.7 11.1 77 2.1 W 46 57 25 31 1007.3 - -
30/01:00am 15.0 6.6 11.1 77 2.1 WSW 46 56 25 30 1007.1 - -
30/12:50am 15.0 6.6 11.1 77 2.1 WSW 46 56 25 30 1006.9 - -
30/12:40am 15.0 7.0 11.2 78 2.0 W 44 54 24 29 1006.8 - -
30/12:30am 14.9 7.0 11.3 79 1.9 W 44 52 24 28 1006.8 - -
30/12:10am 14.5 8.7 11.4 82 1.7 W 33 44 18 24 1007.3 - -
30/12:00am 14.5 9.2 11.3 81 1.7 W 30 35 16 19 1007.2 - -
 
Date/Time
EST
Temp
°C
App
Temp
°C
Dew
Point
Rel
Hum
%
Delta-T
°C
Wind Press
QNH
hPa
Press
MSL
hPa
Rain
since 9 am
mm
Dir
 
Spd
km/h
Gust
km/h
Spd
kts
Gust
kts
29/11:50pm 14.6 9.2 10.9 78 2.0 WSW 30 35 16 19 1007.0 - -
29/11:40pm 14.9 8.9 10.7 76 2.2 WSW 33 41 18 22 1007.0 - -
29/11:30pm 15.4 9.4 10.8 74 2.4 WSW 33 41 18 22 1007.1 - -
29/11:20pm 15.5 8.7 10.7 73 2.5 WSW 37 44 20 24 1006.9 - -
29/11:10pm 15.5 8.7 10.6 72 2.6 W 37 46 20 25 1006.9 - -
29/11:00pm 15.4 8.6 10.5 72 2.6 W 37 44 20 24 1006.9 - -
29/10:50pm 15.4 8.5 10.4 72 2.6 W 37 50 20 27 1006.9 - -
29/10:40pm 15.3 8.4 10.3 72 2.6 W 37 41 20 22 1006.9 - -
29/10:30pm 15.3 8.8 10.2 71 2.7 W 35 44 19 24 1006.8 - -
29/10:20pm 15.7 7.3 9.8 68 3.1 WSW 44 63 24 34 1006.6 - -
29/10:10pm 15.6 5.7 9.6 67 3.1 W 52 63 28 34 1006.4 - -
29/10:00pm 15.6 5.6 9.5 67 3.2 W 52 63 28 34 1006.3 - -
29/09:50pm 15.6 5.6 9.5 67 3.2 W 52 61 28 33 1006.1 - -
29/09:40pm 15.6 5.6 9.4 66 3.2 W 52 65 28 35 1006.0 - -
29/09:30pm 15.5 5.9 9.5 67 3.1 WNW 50 61 27 33 1005.7 - -
29/09:20pm 15.5 5.9 9.4 67 3.2 WNW 50 57 27 31 1005.5 - -
29/09:10pm 15.5 5.5 9.4 67 3.2 WNW 52 61 28 33 1005.5 - -
29/09:00pm 15.5 5.9 9.5 67 3.1 WNW 50 61 27 33 1005.4 - -
29/08:50pm 15.6 6.4 9.4 66 3.2 WNW 48 57 26 31 1005.5 - -
29/08:40pm 15.6 6.4 9.4 66 3.2 WNW 48 57 26 31 1005.6 - -
29/08:30pm 15.6 6.3 9.3 66 3.3 WNW 48 57 26 31 1005.5 - -
29/08:20pm 15.6 5.9 9.2 65 3.3 WNW 50 59 27 32 1005.4 - -
29/08:10pm 15.7 5.6 9.1 65 3.4 WNW 52 59 28 32 1005.5 - -
29/08:00pm 15.7 5.6 9.1 65 3.4 WNW 52 63 28 34 1005.5 - -
29/07:50pm 15.7 5.2 9.0 64 3.4 WNW 54 63 29 34 1005.4 - -
29/07:30pm 15.6 5.5 9.1 65 3.3 WNW 52 61 28 33 1005.2 - -
29/07:20pm 15.7 5.6 9.1 65 3.4 WNW 52 61 28 33 1005.3 - -
29/07:10pm 15.8 4.9 8.9 63 3.5 WNW 56 63 30 34 1005.2 - -
29/07:00pm 15.9 5.0 8.8 62 3.6 WNW 56 67 30 36 1005.2 - -
29/06:50pm 15.9 5.0 8.8 62 3.6 WNW 56 65 30 35 1005.1 - -
29/06:40pm 16.0 4.9 8.8 62 3.7 WNW 57 69 31 37 1004.9 - -
29/06:30pm 16.1 5.0 8.7 61 3.8 WNW 57 69 31 37 1004.8 - -
29/06:20pm 16.2 3.9 8.4 60 4.0 WNW 63 78 34 42 1004.7 - -
29/06:10pm 16.3 3.2 8.3 59 4.1 WNW 67 82 36 44 1004.5 - -
29/06:00pm 16.2 3.1 8.3 59 4.0 WNW 67 82 36 44 1004.2 - -
29/05:50pm 16.3 3.1 8.1 58 4.2 WNW 67 80 36 43 1004.1 - -
29/05:40pm 16.2 3.4 8.2 59 4.1 WNW 65 82 35 44 1004.0 - -
29/05:30pm 16.0 4.0 8.4 60 3.9 WNW 61 72 33 39 1004.0 - -
29/05:20pm 16.0 4.4 8.4 60 3.9 WNW 59 69 32 37 1004.0 - -
29/05:10pm 16.0 4.5 8.5 61 3.8 WNW 59 70 32 38 1004.0 - -
29/05:00pm 16.0 4.5 8.5 61 3.8 WNW 59 69 32 37 1004.0 - -
29/04:50pm 16.0 4.9 8.6 61 3.8 WNW 57 72 31 39 1003.9 - -
29/04:40pm 16.0 4.9 8.6 61 3.8 WNW 57 67 31 36 1003.8 - -
29/04:30pm 16.0 5.0 8.6 61 3.8 WNW 56 67 30 36 1003.7 - -
29/04:20pm 16.0 5.0 8.6 61 3.8 WNW 56 67 30 36 1003.5 - -
29/04:10pm 16.0 5.5 8.7 62 3.7 WNW 54 70 29 38 1003.6 - -
29/04:00pm 16.0 5.8 8.7 62 3.7 WNW 52 63 28 34 1003.8 - -
29/03:50pm 16.1 5.5 8.6 61 3.8 WNW 54 63 29 34 1003.8 - -
29/03:40pm 16.2 5.2 8.5 60 3.9 WNW 56 69 30 37 1003.6 - -
29/03:30pm 16.2 5.0 8.5 60 3.9 WNW 57 67 31 36 1003.6 - -
29/03:20pm 16.2 5.2 8.5 60 3.9 WNW 56 65 30 35 1003.6 - -
29/03:10pm 16.3 5.7 8.6 60 3.9 WNW 54 67 29 36 1003.6 - -
29/03:00pm 16.4 5.9 8.8 60 3.9 WNW 54 63 29 34 1003.6 - -
29/02:50pm 16.3 5.8 8.8 61 3.8 WNW 54 63 29 34 1003.6 - -
29/02:40pm 16.3 7.0 9.1 62 3.7 WNW 48 63 26 34 1003.9 - -
29/02:30pm 16.4 6.3 9.1 62 3.8 WNW 52 63 28 34 1003.9 - -
29/02:20pm 16.8 6.3 9.0 60 4.0 WNW 54 63 29 34 1003.8 - -
29/02:10pm 16.6 5.5 8.7 59 4.1 WNW 57 67 31 36 1003.7 - -
29/02:00pm 16.6 5.4 8.4 58 4.2 WNW 57 70 31 38 1003.7 - -
29/01:50pm 16.7 5.6 8.6 59 4.2 WNW 57 69 31 37 1003.8 - -
29/01:40pm 16.7 5.7 8.5 58 4.2 WNW 56 65 30 35 1003.8 - -
29/01:30pm 16.6 6.4 8.7 59 4.1 WNW 52 63 28 34 1003.7 - -
29/01:20pm 16.7 5.4 8.1 57 4.4 WNW 57 69 31 37 1003.5 - -
29/01:10pm 16.7 5.0 7.8 55 4.5 WNW 59 72 32 39 1003.6 - -
29/01:00pm 16.6 4.9 7.9 56 4.4 WNW 59 72 32 39 1003.7 - -
29/12:50pm 16.5 5.4 8.1 57 4.3 WNW 56 69 30 37 1003.8 - -
29/12:40pm 16.4 5.4 8.3 58 4.1 WNW 56 67 30 36 1004.0 - -
29/12:30pm 16.4 5.4 8.3 58 4.1 WNW 56 65 30 35 1003.8 - -
29/12:20pm 16.4 5.3 8.2 58 4.2 WNW 56 69 30 37 1003.9 - -
29/12:10pm 16.5 4.9 8.1 57 4.3 WNW 59 72 32 39 1004.1 - -
29/12:00pm 16.5 4.5 8.0 57 4.3 WNW 61 74 33 40 1004.1 - -
29/11:50am 16.6 4.9 7.8 56 4.4 WNW 59 72 32 39 1004.3 - -
29/11:40am 16.7 5.4 7.8 55 4.5 WNW 57 69 31 37 1004.4 - -
29/11:30am 16.5 5.3 7.7 56 4.4 WNW 56 69 30 37 1004.6 - -
29/11:20am 16.2 7.5 7.9 58 4.2 WNW 43 61 23 33 1005.2 - -
29/11:10am 16.3 8.0 7.8 57 4.3 WNW 41 52 22 28 1005.7 - -
29/11:00am 16.5 7.6 7.7 56 4.4 WNW 44 52 24 28 1005.9 - -
29/10:50am 16.0 7.5 7.1 55 4.4 WNW 41 50 22 27 1005.8 - -
29/10:40am 15.8 7.7 7.1 56 4.3 WNW 39 46 21 25 1005.7 - -
29/10:30am 15.9 7.0 7.0 55 4.4 WNW 43 56 23 30 1005.7 - -
29/10:20am 15.9 7.0 6.9 55 4.4 WNW 43 50 23 27 1006.0 - -
29/10:10am 15.9 6.8 6.6 54 4.6 WNW 44 54 24 29 1005.9 - -
29/10:00am 15.9 6.8 6.7 54 4.5 NW 44 54 24 29 1006.0 - -
29/09:50am 15.8 6.9 7.0 56 4.3 NW 43 52 23 28 1006.3 - -
29/09:40am 15.9 7.1 7.2 56 4.3 NW 43 50 23 27 1006.6 - -
29/09:20am 15.8 6.0 7.1 56 4.3 NW 48 67 26 36 1006.8 - -
29/09:10am 15.8 6.9 7.6 58 4.1 WNW 44 54 24 29 1006.9 - -
29/09:00am 15.8 7.6 8.0 60 3.9 WNW 41 52 22 28 1007.1 - -
29/08:50am 15.9 7.0 7.8 58 4.1 WNW 44 56 24 30 1007.4 - -
29/08:40am 16.0 6.3 7.5 57 4.2 WNW 48 59 26 32 1007.4 - -
29/08:30am 15.9 7.2 7.9 59 4.0 WNW 43 52 23 28 1007.4 - -
29/08:20am 15.9 7.7 8.1 60 3.9 WNW 41 50 22 27 1007.3 - -
29/08:10am 15.9 7.0 7.7 58 4.1 WNW 44 50 24 27 1007.4 - -
29/08:00am 16.0 6.2 7.0 55 4.4 WNW 48 61 26 33 1007.5 - -
29/07:50am 16.1 6.2 6.6 53 4.7 WNW 48 61 26 33 1007.3 - -
29/07:40am 16.1 5.4 6.5 53 4.7 WNW 52 61 28 33 1007.4 - -
29/07:30am 16.2 5.4 6.2 51 4.9 WNW 52 63 28 34 1007.2 - -
29/07:20am 16.1 4.5 5.9 50 4.9 WNW 56 69 30 37 1007.1 - -
29/07:10am 15.9 5.1 5.8 51 4.9 WNW 52 65 28 35 1007.4 - -
29/07:00am 15.7 4.1 6.0 52 4.7 W 56 69 30 37 1007.4 - -
29/06:50am 15.5 6.0 6.7 55 4.3 WNW 46 56 25 30 1007.6 - -
29/06:40am 15.6 6.6 6.4 54 4.5 WNW 43 56 23 30 1007.7 - -
29/06:20am 15.2 7.1 7.0 58 4.0 WNW 39 52 21 28 1007.5 - -
29/06:10am 15.0 7.7 7.3 60 3.8 WNW 35 43 19 23 1007.6 - -
29/06:00am 15.0 7.7 7.1 59 3.9 WNW 35 43 19 23 1007.6 - -
29/05:50am 14.9 7.2 6.9 58 3.9 WNW 37 43 20 23 1007.6 - -
29/05:40am 14.9 7.5 6.8 58 4.0 WNW 35 44 19 24 1007.5 - -
29/05:30am 14.8 6.9 6.4 57 4.1 NW 37 43 20 23 1007.4 - -
29/05:20am 14.8 6.6 6.6 58 4.0 WNW 39 46 21 25 1007.5 - -
29/05:10am 14.8 7.5 7.1 60 3.8 WNW 35 44 19 24 1007.5 - -
29/05:00am 14.8 7.9 7.2 60 3.7 NW 33 41 18 22 1007.4 - -
29/04:50am 14.9 8.2 7.3 60 3.7 NW 32 37 17 20 1007.3 - -
29/04:40am 14.8 8.8 7.0 59 3.8 NW 28 33 15 18 1007.3 - -
29/04:30am 14.7 9.4 6.8 59 3.9 WNW 24 32 13 17 1007.5 - -
29/04:20am 14.6 9.7 7.1 60 3.7 WNW 22 28 12 15 1007.6 - -
29/04:10am 14.6 9.4 7.3 61 3.6 WNW 24 30 13 16 1007.7 - -
29/04:00am 14.7 8.3 7.1 60 3.7 WNW 30 35 16 19 1007.8 - -
29/03:50am 14.7 7.9 7.1 60 3.7 WNW 32 37 17 20 1007.7 - -
29/03:40am 14.8 8.3 6.6 58 4.0 WNW 30 39 16 21 1007.7 - -
29/03:30am 14.8 8.0 6.7 58 3.9 WNW 32 43 17 23 1007.8 - -
29/03:20am 14.8 8.0 6.9 59 3.9 WNW 32 39 17 21 1007.9 - -
29/03:10am 14.7 8.9 7.9 63 3.4 WNW 28 35 15 19 1008.0 - -
29/03:00am 14.8 9.3 7.7 62 3.5 WNW 26 32 14 17 1008.1 - -
29/02:50am 14.7 8.8 7.6 62 3.5 WNW 28 33 15 18 1008.2 - -
29/02:40am 14.7 9.2 7.7 63 3.5 WNW 26 33 14 18 1008.2 - -
29/02:30am 14.6 8.8 7.8 63 3.4 WNW 28 35 15 19 1008.3 - -
29/02:20am 14.5 8.8 8.2 66 3.2 WNW 28 32 15 17 1008.4 - -
29/02:10am 14.5 9.2 8.3 66 3.1 WNW 26 30 14 16 1008.5 - -
29/02:00am 14.5 9.1 7.9 64 3.3 WNW 26 30 14 16 1008.6 - -
29/01:50am 14.5 9.6 8.3 66 3.1 WNW 24 28 13 15 1008.8 - -
29/01:40am 14.5 10.4 8.5 67 3.0 WNW 20 28 11 15 1009.1 - -
29/01:30am 14.6 10.1 8.4 66 3.1 WNW 22 24 12 13 1009.2 - -
29/01:20am 14.6 10.1 8.4 66 3.1 WNW 22 24 12 13 1009.3 - -
29/01:10am 14.8 10.2 8.0 64 3.4 WNW 22 26 12 14 1009.4 - -
29/01:00am 14.8 9.3 7.5 61 3.6 WNW 26 30 14 16 1009.5 - -
29/12:50am 14.8 9.3 7.7 62 3.5 WNW 26 30 14 16 1009.6 - -
29/12:40am 14.7 9.6 7.8 63 3.4 WNW 24 30 13 16 1009.7 - -
29/12:30am 14.8 9.7 7.6 62 3.6 WNW 24 28 13 15 1009.8 - -
29/12:20am 14.7 8.8 7.6 62 3.5 WNW 28 32 15 17 1009.9 - -
29/12:10am 14.6 8.9 8.5 67 3.1 WNW 28 32 15 17 1010.1 - -
29/12:00am 14.5 9.3 8.9 69 2.8 NW 26 30 14 16 1010.1 - -
 
Date/Time
EST
Temp
°C
App
Temp
°C
Dew
Point
Rel
Hum
%
Delta-T
°C
Wind Press
QNH
hPa
Press
MSL
hPa
Rain
since 9 am
mm
Dir
 
Spd
km/h
Gust
km/h
Spd
kts
Gust
kts
28/11:50pm 14.6 9.8 8.8 68 2.9 WNW 24 26 13 14 1010.2 - -
28/11:40pm 14.7 9.7 8.1 64 3.3 WNW 24 28 13 15 1010.3 - -
28/11:20pm 14.7 9.8 8.6 67 3.1 WNW 24 28 13 15 1010.6 - -
28/11:10pm 14.7 10.6 8.5 66 3.1 WNW 20 26 11 14 1010.8 - -
28/11:00pm 14.7 10.3 8.8 68 3.0 WNW 22 28 12 15 1010.8 - -
28/10:50pm 14.9 10.1 8.9 67 3.1 WNW 24 28 13 15 1010.9 - -
28/10:40pm 15.0 10.2 8.8 66 3.2 WNW 24 28 13 15 1011.0 - -
28/10:30pm 15.0 10.6 9.0 67 3.1 WNW 22 26 12 14 1011.1 - -
28/10:20pm 15.1 10.6 8.5 64 3.3 WNW 22 26 12 14 1011.1 - -
28/10:10pm 15.0 10.0 8.2 64 3.4 WNW 24 28 13 15 1011.1 - -
28/10:00pm 15.0 10.1 8.5 65 3.3 WNW 24 28 13 15 1011.2 - -
28/09:50pm 15.2 10.8 8.8 65 3.3 WNW 22 26 12 14 1011.3 - -
28/09:40pm 15.2 10.3 8.4 64 3.4 WNW 24 28 13 15 1011.4 - -
28/09:30pm 15.3 9.9 8.2 62 3.6 WNW 26 28 14 15 1011.4 - -
28/09:20pm 15.3 9.9 8.0 61 3.7 WNW 26 30 14 16 1011.3 - -
28/09:10pm 15.4 10.0 8.0 61 3.7 W 26 30 14 16 1011.6 - -
28/09:00pm 15.5 9.3 7.7 59 3.9 W 30 33 16 18 1011.5 - -
28/08:50pm 15.3 9.1 7.9 61 3.7 W 30 35 16 19 1011.5 - -
28/08:40pm 15.3 10.5 8.9 65 3.3 WNW 24 30 13 16 1011.7 - -
28/08:30pm 15.4 11.0 8.8 65 3.4 WNW 22 26 12 14 1011.6 - -
28/08:20pm 15.5 11.0 8.6 63 3.5 WNW 22 26 12 14 1011.5 - -
28/08:10pm 15.5 10.1 8.1 61 3.7 WNW 26 30 14 16 1011.4 - -
28/08:00pm 15.3 10.1 8.8 65 3.3 WNW 26 33 14 18 1011.3 - -
28/07:50pm 15.2 10.6 9.5 69 2.9 WNW 24 30 13 16 1011.3 - -
28/07:30pm 15.6 11.4 9.9 69 3.0 WNW 22 24 12 13 1011.3 - -
28/07:20pm 15.7 11.0 9.4 66 3.3 WNW 24 28 13 15 1011.2 - -
28/07:10pm 15.8 10.7 9.1 64 3.4 WNW 26 30 14 16 1011.2 - -
28/07:00pm 15.7 10.6 9.2 65 3.4 WNW 26 30 14 16 1011.2 - -
28/06:50pm 15.8 11.6 9.7 67 3.2 WNW 22 28 12 15 1011.1 - -
28/06:40pm 15.9 10.9 9.5 66 3.3 NW 26 32 14 17 1011.0 - -
28/06:30pm 16.1 9.8 8.8 62 3.7 NW 32 37 17 20 1010.8 - -
28/06:20pm 16.0 9.5 8.9 62 3.6 NW 33 39 18 21 1010.6 - -
28/06:10pm 16.1 9.9 9.5 65 3.4 NW 32 37 17 20 1010.5 - -
28/06:00pm 16.3 10.0 9.0 62 3.8 NW 32 37 17 20 1010.5 - -
28/05:50pm 16.4 10.1 8.9 61 3.9 NW 32 39 17 21 1010.6 - -
28/05:40pm 16.4 9.8 8.7 60 3.9 NW 33 37 18 20 1010.7 - -
28/05:30pm 16.3 10.1 9.4 63 3.6 NW 32 37 17 20 1010.9 - -
28/05:20pm 16.1 11.3 10.2 68 3.1 NW 26 32 14 17 1010.9 - -
28/05:10pm 16.1 12.2 10.7 70 2.9 NW 22 26 12 14 1010.9 - -
28/05:00pm 16.2 11.9 10.6 69 3.0 NW 24 28 13 15 1010.9 - -
28/04:50pm 16.4 11.7 10.5 68 3.1 NW 26 30 14 16 1010.9 - -
28/04:40pm 16.3 11.4 10.1 66 3.3 NW 26 30 14 16 1010.8 - -
28/04:30pm 16.4 10.7 9.9 65 3.4 NW 30 33 16 18 1010.7 - -
28/04:20pm 16.5 11.1 9.5 63 3.6 NW 28 33 15 18 1010.7 - -
28/04:10pm 16.7 10.4 9.0 60 4.0 NW 32 35 17 19 1010.7 - -
28/04:00pm 16.8 10.4 9.2 61 3.9 NW 33 37 18 20 1010.7 - -
28/03:50pm 16.8 10.5 9.1 60 4.0 NW 32 35 17 19 1010.7 - -
28/03:40pm 16.8 10.3 9.0 60 4.0 NW 33 37 18 20 1010.7 - -
28/03:30pm 16.8 10.7 9.6 62 3.8 WNW 32 35 17 19 1010.7 - -
28/03:20pm 16.8 11.4 9.6 62 3.8 NW 28 32 15 17 1010.8 - -
28/03:10pm 16.9 11.9 9.6 62 3.8 NW 26 32 14 17 1010.9 - -
28/03:00pm 17.2 12.6 9.6 61 4.0 NW 24 30 13 16 1011.0 - -
28/02:50pm 17.1 11.2 8.9 58 4.2 NW 30 35 16 19 1011.0 - -
28/02:40pm 17.2 11.6 8.8 57 4.3 WNW 28 32 15 17 1011.0 - -
28/02:30pm 17.2 10.9 8.8 57 4.3 WNW 32 37 17 20 1011.0 - -
28/02:20pm 16.9 11.4 9.2 60 4.0 NW 28 35 15 19 1011.1 - -
28/02:10pm 16.9 11.4 9.0 59 4.1 NW 28 37 15 20 1011.1 - -
28/02:00pm 16.8 10.4 9.3 61 3.9 NW 33 39 18 21 1011.1 - -
28/01:50pm 16.7 10.6 9.9 64 3.6 NW 32 37 17 20 1011.1 - -
28/01:40pm 16.7 10.5 9.3 61 3.8 NW 32 37 17 20 1011.1 - -
28/01:30pm 16.8 9.8 8.6 58 4.2 NW 35 41 19 22 1011.1 - -
28/01:20pm 16.7 10.1 8.6 59 4.2 NW 33 39 18 21 1011.2 - -
28/01:10pm 16.6 10.2 8.5 58 4.1 NW 32 37 17 20 1011.4 - -
28/12:50pm 16.4 10.5 9.1 62 3.8 NW 30 37 16 20 1011.5 - -
28/12:40pm 16.4 9.8 8.7 60 3.9 NW 33 39 18 21 1011.5 - -
28/12:30pm 16.4 9.5 8.7 60 3.9 NW 35 43 19 23 1011.6 - -
28/12:20pm 16.2 10.0 9.4 64 3.5 NW 32 39 17 21 1011.8 - -
28/12:10pm 16.3 10.4 9.1 62 3.7 NW 30 37 16 20 1011.9 - -
28/12:00pm 16.2 9.2 8.6 60 3.9 NW 35 41 19 22 1012.0 - -
28/11:50am 16.2 8.8 8.5 60 3.9 NW 37 43 20 23 1012.1 - -
28/11:40am 16.3 8.9 8.4 59 4.0 NW 37 43 20 23 1012.3 - -
28/11:30am 16.2 8.8 8.2 59 4.1 NW 37 46 20 25 1012.5 - -
28/11:20am 16.2 8.4 8.2 59 4.1 NW 39 43 21 23 1012.7 - -
28/11:10am 16.2 8.8 8.2 59 4.1 NW 37 43 20 23 1012.9 - -
28/11:00am 16.0 8.2 8.1 59 4.0 NW 39 46 21 25 1013.1 - -
28/10:40am 15.7 9.1 8.6 62 3.6 NW 33 41 18 22 1013.4 - -
28/10:30am 15.6 8.5 8.2 61 3.7 NW 35 43 19 23 1013.6 - -
28/10:20am 15.6 8.1 8.1 61 3.8 NW 37 44 20 24 1013.8 - -
28/10:10am 15.5 7.2 7.9 60 3.8 NW 41 48 22 26 1013.9 - -
28/10:00am 15.5 7.3 8.1 61 3.7 NW 41 48 22 26 1014.0 - -
28/09:50am 15.4 7.9 8.1 61 3.7 NW 37 46 20 25 1014.3 - -
28/09:40am 15.3 7.5 8.1 62 3.6 NW 39 44 21 24 1014.5 - -
28/09:30am 15.2 6.5 7.7 61 3.7 NW 43 50 23 27 1014.5 - -
28/09:20am 15.2 7.7 7.8 61 3.7 NW 37 44 20 24 1014.6 - -
28/09:10am 15.1 7.0 7.2 59 3.9 NW 39 46 21 25 1014.6 - -
28/09:00am 15.3 7.3 7.4 59 3.9 NW 39 48 21 26 1014.6 - -
28/08:50am 15.3 6.9 7.4 59 3.9 NW 41 50 22 27 1014.6 - -
28/08:40am 15.2 7.3 7.7 61 3.7 NW 39 46 21 25 1014.8 - -
28/08:30am 15.3 7.7 7.6 60 3.8 NW 37 44 20 24 1014.9 - -
28/08:20am 15.3 7.3 7.5 59 3.9 NW 39 44 21 24 1014.9 - -
28/08:10am 15.3 7.3 7.3 59 4.0 NW 39 46 21 25 1014.9 - -
28/08:00am 15.2 6.8 7.2 59 3.9 NW 41 46 22 25 1014.9 - -
28/07:50am 15.0 7.0 7.3 60 3.8 NW 39 46 21 25 1015.0 - -
28/07:40am 15.0 7.7 7.3 60 3.8 NW 35 44 19 24 1015.0 - -
28/07:30am 14.9 7.2 7.2 60 3.8 NW 37 44 20 24 1015.1 - -
28/07:20am 14.8 7.1 7.0 59 3.8 NW 37 44 20 24 1015.1 - -
28/07:10am 14.6 6.5 7.2 61 3.6 NW 39 44 21 24 1015.2 - -
28/07:00am 14.6 6.9 7.0 60 3.7 NW 37 44 20 24 1015.2 - -
28/06:50am 14.4 6.7 6.9 60 3.7 NW 37 44 20 24 1015.3 - -
28/06:40am 14.3 6.6 7.1 62 3.5 NW 37 44 20 24 1015.3 - -
28/06:30am 14.3 6.6 7.2 62 3.5 NW 37 43 20 23 1015.4 - -
28/06:20am 14.2 6.5 6.9 61 3.6 NW 37 44 20 24 1015.4 - -
28/06:10am 14.2 6.9 7.0 62 3.5 NW 35 43 19 23 1015.5 - -
28/06:00am 14.1 7.2 7.3 63 3.3 NW 33 39 18 21 1015.6 - -
28/05:50am 14.2 7.5 7.3 63 3.4 NW 32 37 17 20 1015.6 - -
28/05:40am 14.2 6.9 7.1 62 3.5 NW 35 43 19 23 1015.5 - -
28/05:30am 14.0 7.1 7.1 63 3.4 NW 33 39 18 21 1015.4 - -
28/05:20am 14.0 6.7 7.0 62 3.4 NW 35 41 19 22 1015.3 - -
28/05:10am 14.0 7.1 7.1 63 3.4 NW 33 39 18 21 1015.4 - -
28/05:00am 14.0 6.7 7.1 63 3.4 NW 35 39 19 21 1015.4 - -
28/04:50am 14.0 7.1 7.3 64 3.3 NW 33 37 18 20 1015.4 - -
28/04:40am 14.0 7.1 7.1 63 3.4 NW 33 37 18 20 1015.3 - -
28/04:30am 14.0 7.3 7.3 64 3.3 NW 32 37 17 20 1015.4 - -
28/04:20am 13.9 7.0 7.2 64 3.3 NW 33 37 18 20 1015.4 - -
28/04:10am 13.9 7.1 7.1 63 3.3 NW 32 37 17 20 1015.4 - -
28/04:00am 13.9 7.1 7.0 63 3.4 NW 32 37 17 20 1015.5 - -
28/03:50am 13.9 7.2 7.3 64 3.2 NW 32 37 17 20 1015.7 - -
28/03:40am 13.8 7.4 7.1 64 3.3 NW 30 35 16 19 1015.8 - -
28/03:30am 13.8 7.0 7.0 63 3.3 NW 32 35 17 19 1016.0 - -
28/03:20am 13.7 7.0 7.2 65 3.2 NW 32 37 17 20 1016.0 - -
28/03:10am 13.8 7.5 7.6 66 3.1 NW 30 35 16 19 1016.1 - -
28/03:00am 13.9 7.2 7.4 65 3.2 NW 32 35 17 19 1016.2 - -
28/02:50am 13.9 7.2 7.4 65 3.2 NW 32 35 17 19 1016.2 - -
28/02:40am 13.9 7.6 7.5 65 3.1 NW 30 35 16 19 1016.2 - -
28/02:20am 13.8 7.4 7.1 64 3.3 NW 30 35 16 19 1016.4 - -
28/02:10am 13.8 7.4 7.1 64 3.3 NW 30 35 16 19 1016.5 - -
28/02:00am 13.8 7.5 7.2 64 3.2 NW 30 35 16 19 1016.7 - -
28/01:50am 13.7 7.7 7.2 65 3.2 NW 28 33 15 18 1016.8 - -
28/01:40am 13.7 7.0 7.2 65 3.2 NW 32 35 17 19 1016.8 - -
28/01:30am 13.8 7.5 7.5 66 3.1 NW 30 35 16 19 1016.7 - -
28/01:20am 13.7 6.8 7.3 65 3.1 NW 33 37 18 20 1016.7 - -
28/01:10am 13.7 7.0 7.5 66 3.0 NW 32 35 17 19 1016.9 - -
28/01:00am 13.7 7.4 7.5 66 3.0 NW 30 33 16 18 1017.0 - -
28/12:50am 13.8 8.0 7.8 67 3.0 NW 28 33 15 18 1017.2 - -
28/12:40am 13.9 8.1 7.9 67 3.0 NW 28 33 15 18 1017.2 - -
28/12:30am 14.0 7.7 7.5 65 3.2 WNW 30 37 16 20 1017.1 - -
28/12:20am 14.0 7.1 7.4 64 3.2 NW 33 44 18 24 1017.1 - -
28/12:10am 14.0 7.2 7.6 65 3.2 NW 33 39 18 21 1017.1 - -
28/12:00am 14.0 7.4 7.8 66 3.1 WNW 32 41 17 22 1017.3 - -
 
Date/Time
EST
Temp
°C
App
Temp
°C
Dew
Point
Rel
Hum
%
Delta-T
°C
Wind Press
QNH
hPa
Press
MSL
hPa
Rain
since 9 am
mm
Dir
 
Spd
km/h
Gust
km/h
Spd
kts
Gust
kts
27/11:50pm 14.0 7.8 7.7 66 3.1 WNW 30 33 16 18 1017.4 - -
27/11:40pm 14.0 7.4 7.8 66 3.1 WNW 32 41 17 22 1017.5 - -
27/11:20pm 14.0 8.6 8.0 67 3.0 NW 26 35 14 19 1018.0 - -
27/11:10pm 13.9 8.5 7.9 67 3.0 NW 26 32 14 17 1018.1 - -

Other Formats:

Comma delimited format used in spreadsheet applications
http://www.bom.gov.au/fwo/IDV60801/IDV60801.55039.axf

JavaScript Object Notation format (JSON) in row-major order
http://www.bom.gov.au/fwo/IDV60801/IDV60801.55039.json